Time;durP1;ratioP1;P1;durP2;ratioP2;P2;SDS_P1;SDS_P2;PMS_P1;PMS_P2;Temp;Humidity;BMP_temperature;BMP_pressure;BME280_temperature;BME280_humidity;BME280_pressure;Samples;Min_cycle;Max_cycle;Signal;HPM_P1;HPM_P2
2022/02/09 00:04:19;;;;;;;16.40;8.98;;;;;;;7.39;80.92;101455.28;8721100;32;20482;-75
2022/02/09 00:09:23;;;;;;;16.10;8.38;;;;;;;7.28;81.00;101451.31;8721315;32;20181;-75
2022/02/09 00:14:37;;;;;;;19.52;9.60;;;;;;;7.33;81.04;101450.25;8724157;32;20323;-75
2022/02/09 00:19:56;;;;;;;16.63;10.65;;;;;;;7.37;80.56;101454.47;8723358;32;20164;-75
2022/02/09 00:25:24;;;;;;;13.63;8.45;;;;;;;7.27;80.25;101452.28;8722263;32;20181;-75
2022/02/09 00:36:31;;;;;;;13.02;7.35;;;;;;;7.38;79.64;101448.22;8670919;32;20181;-75
2022/02/09 00:41:52;;;;;;;14.77;7.82;;;;;;;7.38;79.57;101450.88;8720847;32;20234;-76
2022/02/09 01:11:18;;;;;;;12.15;5.88;;;;;;;7.25;79.24;101459.50;8721179;32;20406;-75
2022/02/09 01:41:49;;;;;;;12.82;7.38;;;;;;;7.53;78.08;101431.38;8736764;32;21342;-76
2022/02/09 01:57:19;;;;;;;11.75;6.57;;;;;;;7.16;78.70;101441.28;8721207;32;20180;-75
2022/02/09 02:02:23;;;;;;;14.63;7.85;;;;;;;7.29;78.87;101428.13;8722461;32;20398;-75
2022/02/09 02:07:36;;;;;;;11.07;6.78;;;;;;;7.35;78.08;101426.94;8721288;32;20205;-75
2022/02/09 02:13:03;;;;;;;8.95;6.05;;;;;;;7.38;78.00;101411.63;8721393;32;20415;-75
2022/02/09 02:18:07;;;;;;;8.73;5.13;;;;;;;7.15;77.66;101412.78;8721574;32;20254;-74
2022/02/09 02:23:30;;;;;;;13.30;7.45;;;;;;;7.54;76.84;101411.69;8721962;32;20126;-75
2022/02/09 02:28:47;;;;;;;15.85;8.02;;;;;;;7.48;76.79;101410.19;8721498;32;20473;-75
2022/02/09 02:39:33;;;;;;;11.48;6.65;;;;;;;7.60;76.15;101376.63;8668183;32;20503;-74
2022/02/09 03:11:49;;;;;;;8.18;5.35;;;;;;;7.47;75.57;101387.09;8722817;32;20141;-76
2022/02/09 03:16:57;;;;;;;8.95;5.55;;;;;;;7.38;74.98;101370.69;8723160;32;21034;-74
2022/02/09 03:22:16;;;;;;;14.00;6.32;;;;;;;7.34;75.23;101363.75;8731277;32;20488;-74
2022/02/09 03:27:33;;;;;;;10.00;5.88;;;;;;;7.33;75.44;101381.59;8726605;32;20283;-75
2022/02/09 03:43:42;;;;;;;9.93;5.85;;;;;;;7.39;75.16;101351.88;8740867;32;20461;-74
2022/02/09 03:54:16;;;;;;;8.02;5.85;;;;;;;7.48;74.10;101354.06;8716098;32;20486;-75
2022/02/09 03:59:21;;;;;;;9.45;5.55;;;;;;;7.41;74.55;101341.13;8727412;32;20407;-75
2022/02/09 04:04:24;;;;;;;7.72;4.40;;;;;;;7.33;74.99;101338.84;8727086;32;20440;-75
2022/02/09 04:09:30;;;;;;;7.93;5.97;;;;;;;7.45;76.47;101337.31;8721215;32;20481;-75
2022/02/09 04:14:45;;;;;;;10.88;6.13;;;;;;;6.90;80.69;101321.47;8720953;32;20930;-75
2022/02/09 04:20:09;;;;;;;11.60;7.05;;;;;;;7.06;79.83;101322.44;8719658;32;20446;-75
2022/02/09 04:36:15;;;;;;;12.82;7.53;;;;;;;7.04;81.41;101305.59;8728530;32;20126;-74
2022/02/09 04:41:46;;;;;;;10.30;5.90;;;;;;;6.60;84.28;101311.34;8724973;32;20245;-75
2022/02/09 04:47:17;;;;;;;13.98;8.70;;;;;;;6.33;87.11;101314.44;8722618;32;20185;-74
2022/02/09 04:52:32;;;;;;;15.07;8.93;;;;;;;6.45;87.31;101325.47;8720223;32;21019;-75
2022/02/09 04:57:41;;;;;;;10.75;6.55;;;;;;;6.31;86.16;101311.00;8720093;32;20287;-74
2022/02/09 05:19:53;;;;;;;13.07;7.88;;;;;;;6.74;83.42;101313.34;8718333;32;20207;-75
2022/02/09 05:24:44;;;;;;;12.68;7.07;;;;;;;6.80;82.90;101321.03;8722860;32;20195;-75
2022/02/09 05:29:47;;;;;;;12.50;9.05;;;;;;;6.93;82.46;101319.50;8722534;32;20407;-76
2022/02/09 05:34:52;;;;;;;9.05;6.30;;;;;;;6.76;82.54;101312.31;8717454;32;20469;-75
2022/02/09 05:39:55;;;;;;;14.02;7.43;;;;;;;6.94;81.87;101315.03;8719657;32;20183;-76
2022/02/09 05:45:04;;;;;;;11.77;6.68;;;;;;;6.90;81.80;101314.31;8727577;32;20193;-76
2022/02/09 05:50:18;;;;;;;12.48;7.43;;;;;;;6.85;82.22;101310.97;8732579;32;20223;-75
2022/02/09 05:55:37;;;;;;;11.43;6.90;;;;;;;7.13;80.94;101313.16;8727861;32;20478;-76
2022/02/09 06:00:42;;;;;;;10.98;6.97;;;;;;;6.85;81.61;101303.81;8724882;32;20823;-76
2022/02/09 06:05:47;;;;;;;11.63;7.63;;;;;;;7.20;79.99;101305.69;8726149;32;20719;-75
2022/02/09 06:11:01;;;;;;;10.07;7.32;;;;;;;7.12;79.66;101297.19;8727013;32;20187;-76
2022/02/09 06:19:37;;;;;;;9.43;5.78;;;;;;;7.07;79.58;101305.44;8722841;32;20600;-76
2022/02/09 06:21:35;;;;;;;10.32;6.15;;;;;;;6.94;79.47;101309.69;8722203;32;20414;-76
2022/02/09 06:26:38;;;;;;;10.35;5.85;;;;;;;6.79;80.01;101303.28;8726202;32;20165;-76
2022/02/09 06:31:43;;;;;;;10.70;7.15;;;;;;;6.98;79.61;101305.94;8728618;32;20138;-75
2022/02/09 06:36:56;;;;;;;8.85;6.18;;;;;;;6.81;81.60;101310.28;8730446;32;20499;-76
2022/02/09 06:41:59;;;;;;;9.55;5.72;;;;;;;6.71;82.28;101310.81;8730526;32;20515;-76
2022/02/09 06:47:03;;;;;;;12.52;7.63;;;;;;;6.79;82.50;101305.97;8733121;32;20490;-75
2022/02/09 06:52:08;;;;;;;15.57;8.63;;;;;;;6.69;84.27;101308.25;8727106;32;20146;-77
2022/02/09 06:57:31;;;;;;;13.38;8.77;;;;;;;6.40;87.00;101301.66;8696719;32;20218;-76
2022/02/09 07:02:34;;;;;;;15.40;8.77;;;;;;;6.46;87.28;101305.84;8722691;32;20149;-76
2022/02/09 07:07:39;;;;;;;14.35;8.70;;;;;;;6.47;87.60;101307.56;8722183;32;20423;-76
2022/02/09 07:12:43;;;;;;;15.60;9.45;;;;;;;6.06;90.14;101311.31;8720212;32;20406;-76
2022/02/09 07:17:47;;;;;;;15.85;8.00;;;;;;;6.18;89.26;101299.19;8715197;32;20177;-76
2022/02/09 07:22:56;;;;;;;10.95;7.18;;;;;;;5.99;90.41;101296.53;8712908;32;20435;-76
2022/02/09 07:28:03;;;;;;;13.73;8.65;;;;;;;6.25;89.99;101307.75;8708981;32;20150;-76
2022/02/09 07:33:08;;;;;;;11.45;6.68;;;;;;;6.06;90.53;101305.09;8712005;32;20534;-76
2022/02/09 07:38:13;;;;;;;13.07;7.72;;;;;;;5.98;90.61;101285.91;8713116;32;20417;-76
2022/02/09 07:43:22;;;;;;;15.40;8.27;;;;;;;6.31;89.58;101302.13;8718328;32;20391;-76
2022/02/09 07:48:52;;;;;;;11.15;7.15;;;;;;;5.92;92.44;101298.63;8727949;32;21057;-77
2022/02/09 07:54:01;;;;;;;12.13;7.40;;;;;;;5.84;90.89;101300.78;8734722;32;20165;-77
2022/02/09 07:59:06;;;;;;;13.85;7.53;;;;;;;6.18;90.02;101296.50;8725618;32;20154;-77
2022/02/09 08:04:10;;;;;;;11.15;6.25;;;;;;;6.03;90.05;101297.22;8740237;32;20181;-77
2022/02/09 08:09:20;;;;;;;14.70;9.00;;;;;;;6.18;89.75;101286.69;8738693;32;20767;-76
2022/02/09 08:35:46;;;;;;;12.95;8.15;;;;;;;6.21;86.82;101276.81;8722878;32;20399;-77
2022/02/09 08:40:51;;;;;;;12.13;7.75;;;;;;;6.27;87.35;101269.38;8757266;32;20274;-77
2022/02/09 08:45:54;;;;;;;8.98;4.43;;;;;;;5.89;89.32;101280.06;8719833;32;20192;-78
2022/02/09 08:50:57;;;;;;;8.95;6.05;;;;;;;5.93;89.33;101275.47;8715916;32;20256;-78
2022/02/09 08:56:02;;;;;;;11.85;7.88;;;;;;;6.18;88.42;101265.34;8717484;32;21016;-78
2022/02/09 09:01:10;;;;;;;12.82;8.93;;;;;;;6.37;87.71;101276.00;8718953;32;21663;-78
2022/02/09 09:06:18;;;;;;;10.65;8.55;;;;;;;6.40;86.27;101280.31;8720485;32;20134;-75
2022/02/09 10:32:59;;;;;;;11.52;8.38;;;;;;;7.41;81.66;101275.16;8727863;32;20397;-76
2022/02/09 10:38:24;;;;;;;11.65;9.25;;;;;;;7.06;82.07;101275.19;8731790;32;20415;-77
2022/02/09 10:43:32;;;;;;;12.30;8.35;;;;;;;7.17;82.28;101281.78;8733034;32;20836;-77
2022/02/09 10:48:46;;;;;;;13.50;9.68;;;;;;;7.33;82.21;101265.81;8731006;32;20156;-77
2022/02/09 10:54:04;;;;;;;16.30;9.38;;;;;;;7.06;83.43;101271.66;8730630;32;20167;-75
2022/02/09 10:59:09;;;;;;;12.13;8.27;;;;;;;6.94;83.26;101266.94;8729559;32;20146;-75
2022/02/09 11:04:16;;;;;;;10.80;8.55;;;;;;;7.23;82.93;101252.91;8731434;32;22651;-75
2022/02/09 11:09:20;;;;;;;15.93;10.88;;;;;;;6.69;86.90;101278.88;8735783;32;20134;-77
2022/02/09 11:14:26;;;;;;;17.85;10.90;;;;;;;6.64;87.86;101280.91;8739072;32;21879;-77
2022/02/09 11:19:35;;;;;;;18.67;11.68;;;;;;;6.72;88.13;101278.72;8698549;32;20505;-77
2022/02/09 11:24:44;;;;;;;20.30;13.02;;;;;;;6.63;88.99;101279.16;8724562;32;20428;-77
2022/02/09 11:30:12;;;;;;;18.95;11.32;;;;;;;6.92;88.65;101275.06;8726191;32;20422;-77
2022/02/09 11:35:37;;;;;;;19.77;11.48;;;;;;;6.73;88.45;101274.22;8715089;32;20525;-76
2022/02/09 11:40:48;;;;;;;21.45;13.35;;;;;;;6.68;88.56;101277.13;8714422;32;20415;-76
2022/02/09 11:46:15;;;;;;;17.35;11.07;;;;;;;6.93;87.93;101267.91;8713227;32;20371;-73
2022/02/09 11:51:44;;;;;;;19.35;12.45;;;;;;;6.79;88.37;101272.09;8710620;32;20157;-75
2022/02/09 11:57:23;;;;;;;21.70;13.57;;;;;;;6.93;87.92;101262.56;8720624;32;20185;-76
2022/02/09 12:13:48;;;;;;;20.60;11.48;;;;;;;6.67;88.38;101246.03;8711136;32;20404;-76
2022/02/09 12:19:02;;;;;;;15.10;8.90;;;;;;;6.66;88.94;101246.97;8711883;32;20418;-73
2022/02/09 12:24:26;;;;;;;19.88;13.52;;;;;;;6.82;88.60;101252.38;8715925;32;20141;-75
2022/02/09 12:29:34;;;;;;;19.35;12.50;;;;;;;6.95;87.87;101256.19;8715118;32;20411;-75
2022/02/09 12:34:40;;;;;;;20.65;11.38;;;;;;;6.46;89.84;101260.47;8722656;32;21108;-75
2022/02/09 12:39:49;;;;;;;18.70;11.10;;;;;;;6.57;89.36;101256.31;8716491;32;20559;-76
2022/02/09 12:45:05;;;;;;;19.65;13.13;;;;;;;6.77;88.78;101257.09;8717093;32;20438;-75
2022/02/09 12:50:12;;;;;;;30.45;14.65;;;;;;;6.82;88.07;101253.25;8713114;32;20406;-75
2022/02/09 12:55:19;;;;;;;20.20;12.38;;;;;;;6.70;87.91;101243.22;8712302;32;20187;-75
2022/02/09 13:00:27;;;;;;;14.13;9.30;;;;;;;6.44;87.40;101241.84;8715771;32;20607;-75
2022/02/09 13:05:33;;;;;;;15.68;9.38;;;;;;;6.87;86.97;101238.81;8731443;32;20835;-75
2022/02/09 13:10:39;;;;;;;11.98;7.22;;;;;;;7.12;84.95;101219.72;8729165;32;20768;-75
2022/02/09 13:15:48;;;;;;;8.88;6.70;;;;;;;7.26;84.45;101223.34;8718117;32;20428;-75
2022/02/09 14:52:13;;;;;;;8.25;6.43;;;;;;;8.11;77.72;101240.94;8735678;32;20189;-74
2022/02/09 14:57:19;;;;;;;11.80;7.43;;;;;;;8.24;77.64;101235.75;8706421;32;20150;-75
2022/02/09 15:02:37;;;;;;;9.85;7.25;;;;;;;8.03;77.42;101234.28;8725697;32;20900;-75
2022/02/09 15:07:47;;;;;;;9.05;6.90;;;;;;;7.69;78.09;101228.19;8724447;32;20389;-73
2022/02/09 15:12:58;;;;;;;5.38;4.55;;;;;;;7.70;78.15;101214.69;8723191;32;20437;-75
2022/02/09 15:18:33;;;;;;;10.63;6.03;;;;;;;7.95;77.43;101221.34;8723149;32;20865;-76
2022/02/09 15:23:37;;;;;;;7.95;5.82;;;;;;;7.73;77.34;101211.88;8718444;32;20142;-74
2022/02/09 15:28:40;;;;;;;8.15;6.20;;;;;;;7.87;76.98;101208.44;8727822;32;20150;-75
2022/02/09 15:33:49;;;;;;;10.40;7.68;;;;;;;8.18;76.23;101206.66;8730708;32;20480;-75
2022/02/09 15:39:04;;;;;;;7.50;6.22;;;;;;;7.86;76.41;101206.69;8707600;32;21430;-75
2022/02/09 16:06:04;;;;;;;5.03;4.47;;;;;;;7.91;76.04;101239.41;8736205;32;20153;-75
2022/02/09 16:11:23;;;;;;;5.40;3.92;;;;;;;7.64;76.67;101232.91;8711721;32;20416;-75
2022/02/09 16:16:45;;;;;;;6.72;4.45;;;;;;;7.58;76.94;101236.78;8618427;27;20156;-74
2022/02/09 16:22:01;;;;;;;6.25;4.80;;;;;;;7.84;76.15;101231.78;8585011;33;20139;-74
2022/02/09 16:37:59;;;;;;;6.22;4.18;;;;;;;7.49;77.42;101231.97;8485436;33;20425;-74
2022/02/09 16:48:24;;;;;;;7.05;4.55;;;;;;;7.58;77.57;101225.25;8469430;33;20175;-76
2022/02/09 16:53:47;;;;;;;5.07;4.32;;;;;;;7.49;77.27;101230.16;8481013;33;20646;-74
2022/02/09 17:20:17;;;;;;;9.48;5.38;;;;;;;7.83;75.95;101212.22;8548090;33;20195;-73
2022/02/09 17:25:21;;;;;;;10.32;5.13;;;;;;;7.60;76.71;101209.97;8544954;33;20346;-73
2022/02/09 17:35:50;;;;;;;10.35;6.25;;;;;;;7.70;76.47;101216.53;8496628;33;20426;-74
2022/02/09 17:57:03;;;;;;;9.50;6.90;;;;;;;7.44;77.63;101224.19;8518728;33;20164;-73
2022/02/09 18:02:06;;;;;;;11.82;7.72;;;;;;;7.53;76.73;101235.31;8533674;33;20897;-73
2022/02/09 18:07:13;;;;;;;13.30;8.18;;;;;;;7.58;77.02;101234.13;8515687;33;20290;-74
2022/02/09 18:12:25;;;;;;;13.98;8.55;;;;;;;7.62;77.06;101234.81;8560853;33;22011;-73
2022/02/09 18:34:06;;;;;;;14.43;8.95;;;;;;;7.52;77.15;101226.44;8505802;33;20244;-74
2022/02/09 18:40:05;;;;;;;13.88;8.00;;;;;;;7.41;77.46;101226.16;8553771;33;20261;-75
2022/02/09 18:44:56;;;;;;;14.57;9.15;;;;;;;7.70;76.23;101220.06;8560161;33;20190;-74
2022/02/09 19:06:15;;;;;;;12.18;6.85;;;;;;;7.41;77.33;101196.75;8509324;33;21289;-74
2022/02/09 19:16:47;;;;;;;14.75;9.10;;;;;;;7.67;75.96;101206.84;8484112;33;20196;-74
2022/02/09 19:27:35;;;;;;;16.80;10.13;;;;;;;7.57;76.21;101213.69;8463559;33;20442;-72
2022/02/09 19:48:53;;;;;;;18.92;11.25;;;;;;;7.56;76.31;101195.03;8483454;33;20402;-73
2022/02/09 19:54:07;;;;;;;17.25;11.88;;;;;;;7.64;76.25;101192.81;8486154;33;20833;-73
2022/02/09 19:59:15;;;;;;;18.20;10.93;;;;;;;7.63;75.91;101188.41;8485196;33;20426;-72
2022/02/09 20:04:20;;;;;;;21.23;11.98;;;;;;;7.65;76.09;101183.81;8490803;33;21433;-73
2022/02/09 20:09:24;;;;;;;18.73;11.15;;;;;;;7.47;76.55;101181.22;8495112;33;20190;-73
2022/02/09 20:14:29;;;;;;;22.73;12.23;;;;;;;7.59;76.29;101181.50;8477999;33;20426;-73
2022/02/09 20:19:34;;;;;;;17.70;12.05;;;;;;;7.63;76.53;101180.38;8501110;33;20211;-73
2022/02/09 20:24:39;;;;;;;20.92;11.10;;;;;;;7.65;75.75;101179.34;8469711;33;20428;-73
2022/02/09 20:29:42;;;;;;;21.30;13.35;;;;;;;7.77;75.78;101166.25;8491162;33;20421;-73
2022/02/09 20:34:55;;;;;;;19.08;9.63;;;;;;;7.50;76.54;101162.34;8488532;33;21205;-72
2022/02/09 20:40:05;;;;;;;24.42;11.70;;;;;;;7.74;76.14;101159.25;8484872;33;20225;-73
2022/02/09 20:45:11;;;;;;;18.33;11.50;;;;;;;7.67;76.30;101164.06;8489020;33;20478;-74
2022/02/09 20:50:15;;;;;;;19.40;11.68;;;;;;;7.58;76.29;101175.28;8488042;33;20561;-74
2022/02/09 20:55:19;;;;;;;20.90;11.50;;;;;;;7.67;76.30;101160.53;8494319;33;21057;-74
2022/02/09 21:00:30;;;;;;;21.17;11.75;;;;;;;7.78;75.71;101168.81;8488336;33;20436;-73
2022/02/09 21:05:50;;;;;;;20.90;11.55;;;;;;;7.92;74.73;101165.34;8470133;33;20299;-74
2022/02/09 21:11:02;;;;;;;21.13;11.57;;;;;;;7.91;75.00;101164.50;8484743;33;20465;-75
2022/02/09 21:22:09;;;;;;;20.17;11.82;;;;;;;7.95;74.46;101170.50;8468707;33;20633;-74
2022/02/09 21:27:54;;;;;;;18.00;11.45;;;;;;;7.95;74.38;101149.09;8481341;33;20148;-74
2022/02/09 21:49:31;;;;;;;17.45;9.70;;;;;;;7.82;73.62;101145.44;8501935;33;20160;-74
2022/02/09 21:54:43;;;;;;;14.25;8.93;;;;;;;7.73;73.93;101138.78;8463039;33;20449;-74
2022/02/09 22:00:15;;;;;;;16.60;8.90;;;;;;;7.91;73.56;101144.91;8448024;34;20485;-74
2022/02/09 22:16:25;;;;;;;18.85;9.05;;;;;;;7.89;72.89;101128.94;8490419;33;20144;-73
2022/02/09 22:27:03;;;;;;;14.88;8.70;;;;;;;7.98;72.40;101115.97;8490898;33;20318;-72
2022/02/09 22:32:30;;;;;;;14.82;8.38;;;;;;;7.99;72.21;101105.19;8489079;33;21341;-73
2022/02/09 22:48:29;;;;;;;14.30;9.25;;;;;;;7.91;72.75;101094.94;8485604;33;21254;-75
2022/02/09 22:59:11;;;;;;;13.98;8.98;;;;;;;7.90;72.48;101079.84;8414235;33;20148;-74
2022/02/09 23:04:33;;;;;;;15.52;8.93;;;;;;;7.86;72.35;101075.59;8484319;33;20554;-74
2022/02/09 23:09:50;;;;;;;15.07;8.85;;;;;;;7.89;71.99;101066.53;8487246;33;20986;-75
2022/02/09 23:20:54;;;;;;;15.65;8.93;;;;;;;7.93;72.00;101052.91;8493439;33;20762;-73
2022/02/09 23:53:14;;;;;;;14.15;8.48;;;;;;;7.82;71.75;101035.78;8491807;33;20294;-73
2022/02/09 23:58:34;;;;;;;14.48;8.57;;;;;;;7.90;71.60;101028.16;8462829;33;20424;-75
